Time;durP1;ratioP1;P1;durP2;ratioP2;P2;SDS_P1;SDS_P2;PMS_P1;PMS_P2;Temp;Humidity;BMP_temperature;BMP_pressure;BME280_temperature;BME280_humidity;BME280_pressure;Samples;Min_cycle;Max_cycle;Signal;HPM_P1;HPM_P2
2023/07/08 00:01:17;;;;;;;93.15;57.13;;;22.30;68.10;;;;;;4931075;28;89636;-43
2023/07/08 00:03:43;;;;;;;93.30;56.97;;;22.30;68.30;;;;;;4937121;28;89913;-44
2023/07/08 00:06:16;;;;;;;92.78;56.45;;;22.20;68.40;;;;;;4935476;28;91448;-43
2023/07/08 00:08:41;;;;;;;91.60;56.72;;;22.20;68.60;;;;;;4939395;28;89868;-43
2023/07/08 00:11:11;;;;;;;93.57;56.85;;;22.10;68.50;;;;;;4933045;28;90723;-44
2023/07/08 00:13:36;;;;;;;92.32;56.65;;;22.10;68.60;;;;;;4936961;28;90111;-43
2023/07/08 00:16:03;;;;;;;95.05;56.92;;;22.10;68.70;;;;;;4935992;28;90972;-44
2023/07/08 00:18:29;;;;;;;92.20;56.22;;;22.10;68.70;;;;;;4945657;28;90466;-44
2023/07/08 00:20:55;;;;;;;93.35;56.80;;;22.00;68.70;;;;;;4935329;28;89684;-43
2023/07/08 00:23:23;;;;;;;94.72;56.95;;;22.00;68.90;;;;;;4937515;28;90046;-44
2023/07/08 00:25:49;;;;;;;91.97;56.55;;;22.00;69.90;;;;;;4936952;28;90701;-44
2023/07/08 00:28:19;;;;;;;91.97;56.50;;;22.00;69.20;;;;;;4929156;28;89627;-43
2023/07/08 00:30:45;;;;;;;92.55;56.90;;;21.90;69.10;;;;;;4934927;28;90473;-43
2023/07/08 00:33:11;;;;;;;92.30;56.75;;;21.90;69.10;;;;;;4931966;28;90264;-45
2023/07/08 00:35:41;;;;;;;91.95;56.67;;;21.90;69.30;;;;;;4934544;28;89460;-43
2023/07/08 00:38:27;;;;;;;92.53;56.90;;;21.80;69.40;;;;;;4933412;28;89623;-44
2023/07/08 00:41:21;;;;;;;93.15;56.70;;;21.80;69.40;;;;;;4935111;28;90579;-44
2023/07/08 00:43:50;;;;;;;91.88;56.58;;;21.80;69.40;;;;;;4922867;28;90872;-43
2023/07/08 00:46:31;;;;;;;92.35;56.42;;;21.70;69.50;;;;;;4934429;28;90426;-44
2023/07/08 00:49:08;;;;;;;92.35;56.63;;;21.70;69.50;;;;;;4942477;28;89721;-44
2023/07/08 00:51:37;;;;;;;91.97;56.22;;;21.70;69.80;;;;;;4941058;28;89615;-43
2023/07/08 00:54:04;;;;;;;91.18;56.33;;;21.70;69.70;;;;;;4948046;28;90715;-43
2023/07/08 00:56:42;;;;;;;91.88;56.28;;;21.70;69.80;;;;;;4941528;28;90033;-43
2023/07/08 00:59:32;;;;;;;91.82;56.35;;;21.60;69.80;;;;;;4945890;28;90751;-43
2023/07/08 01:02:01;;;;;;;93.80;56.50;;;21.60;69.90;;;;;;4928876;28;89308;-43
2023/07/08 01:04:42;;;;;;;91.30;56.22;;;21.60;69.90;;;;;;4932073;28;90675;-44
2023/07/08 01:07:09;;;;;;;91.75;56.30;;;21.60;70.00;;;;;;4939528;28;90821;-43
2023/07/08 01:09:40;;;;;;;94.03;56.83;;;21.50;70.00;;;;;;4939519;28;91360;-43
2023/07/08 01:12:11;;;;;;;93.60;56.70;;;21.50;70.10;;;;;;4937531;28;89857;-43
2023/07/08 01:14:38;;;;;;;90.97;56.20;;;21.40;70.10;;;;;;4940355;28;91516;-43
2023/07/08 01:17:04;;;;;;;92.05;56.50;;;21.40;70.10;;;;;;4939900;28;90592;-42
2023/07/08 01:19:33;;;;;;;91.38;56.08;;;21.40;70.10;;;;;;4940555;28;90088;-43
2023/07/08 01:21:59;;;;;;;92.25;57.00;;;21.40;70.20;;;;;;4936193;28;92424;-43
2023/07/08 01:24:26;;;;;;;91.45;56.58;;;21.40;70.20;;;;;;4936565;28;89771;-43
2023/07/08 01:26:51;;;;;;;91.72;56.45;;;21.30;70.30;;;;;;4941918;28;89910;-43
2023/07/08 01:29:17;;;;;;;91.38;56.72;;;21.40;70.40;;;;;;4941385;28;89549;-43
2023/07/08 01:31:48;;;;;;;92.07;56.28;;;21.30;70.30;;;;;;4937948;28;89676;-44
2023/07/08 01:34:16;;;;;;;92.05;56.55;;;21.30;70.50;;;;;;4935995;28;90436;-43
2023/07/08 01:36:47;;;;;;;91.55;56.05;;;21.30;70.50;;;;;;4938045;28;89880;-44
2023/07/08 01:39:17;;;;;;;91.47;56.85;;;21.20;70.50;;;;;;4943310;28;89597;-45
2023/07/08 01:41:42;;;;;;;92.00;56.33;;;21.20;70.60;;;;;;4941726;28;89430;-43
2023/07/08 01:44:23;;;;;;;91.13;56.50;;;21.20;70.70;;;;;;4935485;28;90007;-43
2023/07/08 01:46:50;;;;;;;91.97;56.28;;;21.20;70.80;;;;;;4936607;28;90999;-43
2023/07/08 01:49:16;;;;;;;92.60;56.50;;;21.20;70.80;;;;;;4941283;28;89621;-43
2023/07/08 01:51:42;;;;;;;91.90;56.35;;;21.10;70.80;;;;;;4935061;28;89506;-43
2023/07/08 01:54:07;;;;;;;91.85;56.45;;;21.10;70.90;;;;;;4940112;28;89560;-43
2023/07/08 01:56:33;;;;;;;91.75;56.60;;;21.10;70.90;;;;;;4933624;28;90098;-43
2023/07/08 01:58:59;;;;;;;91.47;56.17;;;21.00;70.90;;;;;;4936268;28;94891;-43
2023/07/08 02:01:24;;;;;;;91.25;56.25;;;21.00;70.90;;;;;;4936074;28;91178;-44
2023/07/08 02:03:50;;;;;;;92.18;56.13;;;21.00;71.10;;;;;;4925323;28;89242;-43
2023/07/08 02:06:15;;;;;;;92.53;57.05;;;21.00;71.10;;;;;;4939041;28;89747;-43
2023/07/08 02:08:41;;;;;;;92.43;56.80;;;21.00;71.10;;;;;;4933061;28;90051;-43
2023/07/08 02:11:07;;;;;;;91.32;56.17;;;21.00;71.20;;;;;;4910184;28;92903;-43
2023/07/08 02:13:32;;;;;;;91.25;56.05;;;20.90;71.20;;;;;;4942028;28;89562;-43
2023/07/08 02:15:58;;;;;;;91.45;56.17;;;20.90;71.30;;;;;;4945226;28;88875;-43
2023/07/08 02:18:24;;;;;;;91.32;56.42;;;20.90;71.30;;;;;;4932900;28;89898;-45
2023/07/08 02:20:50;;;;;;;92.10;56.70;;;20.90;71.30;;;;;;4939706;28;89649;-44
2023/07/08 02:23:16;;;;;;;91.38;56.53;;;20.80;71.20;;;;;;4944716;28;91617;-44
2023/07/08 02:25:49;;;;;;;92.05;56.60;;;20.80;71.30;;;;;;4938560;28;93262;-43
2023/07/08 02:28:15;;;;;;;92.35;56.85;;;20.80;71.30;;;;;;4938774;28;89694;-44
2023/07/08 02:30:41;;;;;;;91.65;56.47;;;20.80;71.30;;;;;;4934835;28;94483;-43
2023/07/08 02:33:06;;;;;;;92.18;56.55;;;20.80;71.50;;;;;;4936509;28;89989;-43
2023/07/08 02:35:32;;;;;;;91.80;56.38;;;20.70;71.40;;;;;;4938882;28;90013;-43
2023/07/08 02:37:58;;;;;;;91.55;56.47;;;20.70;71.50;;;;;;4947807;28;89571;-43
2023/07/08 02:40:24;;;;;;;91.10;56.40;;;20.70;71.50;;;;;;4945746;28;88481;-43
2023/07/08 02:42:50;;;;;;;90.90;55.97;;;20.70;71.60;;;;;;4937893;28;90862;-43
2023/07/08 02:45:16;;;;;;;91.80;56.28;;;20.70;71.60;;;;;;4937576;28;90440;-43
2023/07/08 02:47:42;;;;;;;91.55;56.50;;;20.60;71.80;;;;;;4949887;28;90870;-43
2023/07/08 02:50:09;;;;;;;91.85;56.42;;;20.60;71.80;;;;;;4942809;28;89437;-43
2023/07/08 02:52:35;;;;;;;91.63;55.97;;;20.60;71.80;;;;;;4946111;28;91944;-43
2023/07/08 02:55:01;;;;;;;90.70;56.08;;;20.60;71.90;;;;;;4944122;28;89543;-45
2023/07/08 02:57:27;;;;;;;91.55;56.60;;;20.60;71.80;;;;;;4949413;28;89544;-45
2023/07/08 02:59:53;;;;;;;90.15;55.90;;;20.50;71.80;;;;;;4944479;28;89952;-45
2023/07/08 03:02:18;;;;;;;90.35;56.33;;;20.60;72.00;;;;;;4926961;28;89876;-44
2023/07/08 03:04:44;;;;;;;90.68;56.25;;;20.50;71.90;;;;;;4939437;28;90264;-43
2023/07/08 03:07:11;;;;;;;91.57;56.35;;;20.50;71.90;;;;;;4947838;28;89659;-44
2023/07/08 03:09:38;;;;;;;91.30;56.17;;;20.50;71.90;;;;;;4937749;28;94555;-44
2023/07/08 03:12:05;;;;;;;91.40;56.20;;;20.50;72.00;;;;;;4943973;28;90674;-44
2023/07/08 03:14:31;;;;;;;93.53;56.08;;;20.50;71.90;;;;;;4938971;28;91903;-43
2023/07/08 03:16:57;;;;;;;90.85;56.30;;;20.50;71.90;;;;;;4943573;28;90091;-44
2023/07/08 03:19:22;;;;;;;90.18;55.75;;;20.40;71.90;;;;;;4940204;28;91320;-43
2023/07/08 03:21:48;;;;;;;91.57;56.65;;;20.40;71.90;;;;;;4934221;28;89603;-43
2023/07/08 03:24:13;;;;;;;91.82;56.45;;;20.40;71.90;;;;;;4942132;28;89594;-43
2023/07/08 03:26:39;;;;;;;91.03;56.22;;;20.40;71.90;;;;;;4941552;28;89734;-44
2023/07/08 03:29:08;;;;;;;91.47;56.42;;;20.40;72.10;;;;;;4938570;28;88743;-44
2023/07/08 03:31:34;;;;;;;90.95;56.05;;;20.30;72.00;;;;;;4935744;28;90148;-43
2023/07/08 03:33:59;;;;;;;91.38;56.30;;;20.30;72.00;;;;;;4937641;28;89523;-45
2023/07/08 03:36:26;;;;;;;90.50;55.72;;;20.30;72.20;;;;;;4936169;28;91219;-43
2023/07/08 03:38:53;;;;;;;90.10;55.63;;;20.30;72.20;;;;;;4945045;28;89758;-43
2023/07/08 03:41:19;;;;;;;90.60;56.22;;;20.30;72.10;;;;;;4944116;28;89797;-44
2023/07/08 03:43:45;;;;;;;90.20;56.22;;;20.30;72.20;;;;;;4934851;28;89849;-43
2023/07/08 03:46:11;;;;;;;90.47;56.15;;;20.20;72.20;;;;;;4932808;28;89787;-44
2023/07/08 03:48:37;;;;;;;90.35;56.20;;;20.20;72.20;;;;;;4944966;28;89817;-45
2023/07/08 03:51:04;;;;;;;91.05;56.33;;;20.20;72.20;;;;;;4940001;28;90234;-46
2023/07/08 03:53:29;;;;;;;90.78;55.85;;;20.20;72.20;;;;;;4939101;28;89964;-43
2023/07/08 03:55:55;;;;;;;90.63;55.90;;;20.20;72.20;;;;;;4944033;28;91131;-44
2023/07/08 03:58:20;;;;;;;90.15;55.65;;;20.20;72.90;;;;;;4942259;28;89604;-46
2023/07/08 04:00:46;;;;;;;91.75;56.63;;;20.20;72.20;;;;;;4931410;28;90557;-44
2023/07/08 04:03:12;;;;;;;89.85;55.95;;;20.10;72.20;;;;;;4939428;28;90785;-44
2023/07/08 04:05:38;;;;;;;91.05;55.97;;;20.10;72.30;;;;;;4941267;28;89891;-42
2023/07/08 04:08:04;;;;;;;91.32;56.22;;;20.10;72.40;;;;;;4933048;28;90195;-45
2023/07/08 04:10:29;;;;;;;90.53;56.17;;;20.10;72.30;;;;;;4935040;28;90829;-44
2023/07/08 04:12:55;;;;;;;90.07;55.72;;;20.10;72.30;;;;;;4937003;28;92063;-43
2023/07/08 04:15:25;;;;;;;89.78;56.03;;;20.10;72.20;;;;;;4943806;28;89728;-43
2023/07/08 04:17:51;;;;;;;90.07;55.92;;;20.10;72.10;;;;;;4938001;28;91480;-45
2023/07/08 04:20:18;;;;;;;90.20;56.00;;;20.10;72.10;;;;;;4936529;28;94707;-44
2023/07/08 04:22:44;;;;;;;91.03;56.10;;;20.10;72.10;;;;;;4937807;28;90035;-43
2023/07/08 04:25:12;;;;;;;91.68;55.95;;;20.10;72.10;;;;;;4940839;28;92242;-43
2023/07/08 04:27:38;;;;;;;90.65;55.90;;;20.10;72.10;;;;;;4942653;28;89856;-43
2023/07/08 04:30:05;;;;;;;90.90;55.95;;;20.10;72.30;;;;;;4941926;28;90158;-45
2023/07/08 04:32:31;;;;;;;90.80;56.08;;;20.10;72.30;;;;;;4939570;28;90186;-43
2023/07/08 04:34:56;;;;;;;88.97;55.22;;;20.10;72.30;;;;;;4942551;28;89916;-43
2023/07/08 04:37:22;;;;;;;89.57;55.33;;;20.10;72.10;;;;;;4941398;28;90817;-43
2023/07/08 04:39:48;;;;;;;90.80;55.30;;;20.10;72.00;;;;;;4943910;28;90175;-44
2023/07/08 04:42:16;;;;;;;89.72;55.95;;;20.10;72.00;;;;;;4935552;28;88775;-44
2023/07/08 04:44:42;;;;;;;90.30;55.90;;;20.20;72.10;;;;;;4934818;28;90756;-44
2023/07/08 04:47:13;;;;;;;89.57;55.42;;;20.20;72.20;;;;;;4938807;28;89875;-43
2023/07/08 04:49:43;;;;;;;88.55;55.22;;;20.20;72.00;;;;;;4937749;28;91218;-43
2023/07/08 04:52:09;;;;;;;89.35;55.53;;;20.20;72.00;;;;;;4942680;28;90584;-44
2023/07/08 04:54:34;;;;;;;90.10;55.35;;;20.20;71.90;;;;;;4943778;28;89461;-44
2023/07/08 04:57:00;;;;;;;90.60;55.90;;;20.30;72.10;;;;;;4943913;28;89941;-44
2023/07/08 04:59:26;;;;;;;89.40;55.33;;;20.30;71.80;;;;;;4940246;28;90208;-44
2023/07/08 05:01:53;;;;;;;90.00;55.83;;;20.30;71.80;;;;;;4937725;28;90405;-43
2023/07/08 05:04:20;;;;;;;90.55;55.92;;;20.30;71.80;;;;;;4938066;28;89545;-43
2023/07/08 05:06:46;;;;;;;90.10;55.50;;;20.40;71.90;;;;;;4943418;28;88961;-43
2023/07/08 05:09:12;;;;;;;90.35;55.80;;;20.40;71.80;;;;;;4938487;28;90106;-45
2023/07/08 05:11:38;;;;;;;90.00;55.83;;;20.40;71.80;;;;;;4932953;28;91080;-43
2023/07/08 05:14:04;;;;;;;89.70;55.42;;;20.40;71.50;;;;;;4944723;28;90969;-43
2023/07/08 05:16:32;;;;;;;90.63;55.78;;;20.40;71.90;;;;;;4939891;28;89745;-43
2023/07/08 05:18:58;;;;;;;90.68;55.50;;;20.40;72.80;;;;;;4937816;28;90344;-43
2023/07/08 05:21:24;;;;;;;88.95;55.10;;;20.50;72.20;;;;;;4937807;28;90043;-43
2023/07/08 05:23:50;;;;;;;90.65;55.60;;;20.50;71.80;;;;;;4941783;28;89576;-43
2023/07/08 05:26:16;;;;;;;89.47;55.53;;;20.60;71.90;;;;;;4931912;28;90108;-44
2023/07/08 05:28:42;;;;;;;89.60;55.53;;;20.60;72.30;;;;;;4945038;28;90030;-43
2023/07/08 05:31:08;;;;;;;89.40;55.35;;;20.60;71.80;;;;;;4935941;28;88896;-42
2023/07/08 05:33:34;;;;;;;89.97;55.35;;;20.60;71.80;;;;;;4941098;28;91991;-43
2023/07/08 05:36:00;;;;;;;89.63;55.50;;;20.70;71.80;;;;;;4940400;28;89683;-43
2023/07/08 05:38:26;;;;;;;89.70;55.22;;;20.70;72.50;;;;;;4935589;28;91097;-43
2023/07/08 05:40:57;;;;;;;89.95;55.35;;;20.70;73.40;;;;;;4934126;28;89995;-42
2023/07/08 05:43:23;;;;;;;90.33;55.80;;;20.80;73.30;;;;;;4932317;28;90419;-43
2023/07/08 05:45:49;;;;;;;89.80;55.63;;;20.90;73.40;;;;;;4938910;28;89697;-45
2023/07/08 05:48:15;;;;;;;90.60;55.72;;;20.90;73.20;;;;;;4936843;28;90223;-43
2023/07/08 05:50:41;;;;;;;90.68;55.72;;;20.90;72.20;;;;;;4938921;28;93735;-44
2023/07/08 05:53:10;;;;;;;89.55;55.63;;;20.90;71.60;;;;;;4940244;28;89697;-43
2023/07/08 05:55:36;;;;;;;91.22;56.10;;;20.90;72.10;;;;;;4938368;28;89291;-43
2023/07/08 05:58:02;;;;;;;90.72;55.70;;;21.00;71.00;;;;;;4931501;28;93994;-44
2023/07/08 06:00:27;;;;;;;90.00;55.50;;;21.00;70.60;;;;;;4941873;28;90168;-43
2023/07/08 06:02:53;;;;;;;90.53;55.40;;;21.00;70.50;;;;;;4943720;28;90457;-43
2023/07/08 06:05:18;;;;;;;90.35;55.58;;;21.10;70.50;;;;;;4943247;28;90687;-43
2023/07/08 06:07:44;;;;;;;91.22;55.95;;;21.10;70.30;;;;;;4939857;28;90293;-43
2023/07/08 06:10:10;;;;;;;90.38;56.03;;;21.10;70.40;;;;;;4946316;28;90758;-43
2023/07/08 06:12:35;;;;;;;91.88;55.80;;;21.20;71.50;;;;;;4947414;28;89446;-43
2023/07/08 06:15:01;;;;;;;90.53;56.22;;;21.30;71.00;;;;;;4933730;28;89776;-43
2023/07/08 06:17:27;;;;;;;90.57;56.03;;;21.20;70.50;;;;;;4942118;28;89748;-44
2023/07/08 06:19:52;;;;;;;91.15;55.92;;;21.30;70.30;;;;;;4942395;28;90002;-43
2023/07/08 06:22:18;;;;;;;90.55;56.38;;;21.30;70.10;;;;;;4937245;28;89882;-44
2023/07/08 06:24:43;;;;;;;90.45;56.03;;;21.40;70.50;;;;;;4948757;28;91803;-43
2023/07/08 06:27:10;;;;;;;92.00;55.95;;;21.50;70.70;;;;;;4945927;28;90629;-43
2023/07/08 06:29:35;;;;;;;91.60;56.45;;;21.50;70.50;;;;;;4948901;28;93058;-43
2023/07/08 06:32:02;;;;;;;90.95;55.83;;;21.60;70.20;;;;;;4940247;28;94065;-43
2023/07/08 06:34:27;;;;;;;93.43;56.83;;;21.60;70.10;;;;;;4947815;28;89791;-44
2023/07/08 06:36:53;;;;;;;91.38;56.33;;;21.70;69.90;;;;;;4951463;28;90233;-43
2023/07/08 06:39:19;;;;;;;91.85;56.42;;;21.70;69.80;;;;;;4952252;28;90088;-44
2023/07/08 06:41:45;;;;;;;91.28;56.10;;;21.70;69.60;;;;;;4944065;28;89314;-43
2023/07/08 06:44:11;;;;;;;91.35;56.20;;;21.80;69.20;;;;;;4947437;28;88809;-43
2023/07/08 06:46:37;;;;;;;92.05;56.53;;;21.80;69.10;;;;;;4942980;28;92680;-43
2023/07/08 06:49:03;;;;;;;91.90;56.50;;;21.90;69.00;;;;;;4943201;28;93016;-44
2023/07/08 06:51:28;;;;;;;91.22;56.08;;;21.90;68.90;;;;;;4945960;28;91351;-44
2023/07/08 06:53:54;;;;;;;91.70;56.33;;;21.90;68.50;;;;;;4945836;28;90112;-43
2023/07/08 06:56:20;;;;;;;92.53;56.47;;;22.00;68.40;;;;;;4943735;28;90101;-43
2023/07/08 06:58:46;;;;;;;92.97;56.25;;;22.00;68.30;;;;;;4941468;28;89680;-43
2023/07/08 07:01:12;;;;;;;92.45;56.65;;;22.10;68.30;;;;;;4951223;28;89514;-44
2023/07/08 07:03:38;;;;;;;92.57;56.40;;;22.10;68.20;;;;;;4947099;28;92312;-43
2023/07/08 07:06:03;;;;;;;92.03;56.15;;;22.10;67.70;;;;;;4940208;28;90080;-43
2023/07/08 07:08:29;;;;;;;91.82;56.25;;;22.20;67.50;;;;;;4942407;28;89954;-43
2023/07/08 07:10:55;;;;;;;91.55;55.90;;;22.20;67.30;;;;;;4945219;28;89887;-44
2023/07/08 07:13:20;;;;;;;91.88;56.65;;;22.30;67.50;;;;;;4943741;28;89507;-45
2023/07/08 07:15:48;;;;;;;92.90;57.05;;;22.30;67.10;;;;;;4944896;28;90553;-43
2023/07/08 07:18:14;;;;;;;91.93;56.67;;;22.40;66.90;;;;;;4950836;28;89855;-43
2023/07/08 07:20:50;;;;;;;94.03;56.90;;;22.40;66.70;;;;;;4941579;28;89729;-44
2023/07/08 07:23:15;;;;;;;92.30;56.58;;;22.50;67.10;;;;;;4907366;28;89708;-45
2023/07/08 07:25:41;;;;;;;92.53;56.53;;;22.50;66.80;;;;;;4940543;28;90088;-44
2023/07/08 07:28:07;;;;;;;92.88;56.45;;;22.50;67.20;;;;;;4942769;28;90401;-44
2023/07/08 07:30:33;;;;;;;92.10;56.47;;;22.60;66.30;;;;;;4939592;28;89809;-43
2023/07/08 07:33:00;;;;;;;92.38;56.25;;;22.60;66.30;;;;;;4947408;28;89130;-43
2023/07/08 07:35:25;;;;;;;92.53;57.03;;;22.60;65.80;;;;;;4942082;28;92075;-43
2023/07/08 07:37:51;;;;;;;92.88;56.65;;;22.70;65.70;;;;;;4942222;28;92055;-43
2023/07/08 07:40:17;;;;;;;92.93;56.63;;;22.80;66.20;;;;;;4936261;28;91070;-43
2023/07/08 07:42:45;;;;;;;92.13;56.60;;;22.80;66.50;;;;;;4937817;28;89878;-43
2023/07/08 07:45:11;;;;;;;92.35;56.88;;;22.80;65.60;;;;;;4941525;28;89474;-43
2023/07/08 07:47:37;;;;;;;92.78;56.78;;;22.90;65.60;;;;;;4942743;28;92128;-43
2023/07/08 07:50:05;;;;;;;93.45;57.13;;;22.90;66.20;;;;;;4935214;28;91793;-43
2023/07/08 07:52:31;;;;;;;92.68;56.80;;;23.00;66.10;;;;;;4934363;28;90671;-43
2023/07/08 07:54:56;;;;;;;92.63;56.83;;;23.00;66.20;;;;;;4942817;28;90385;-44
2023/07/08 07:57:23;;;;;;;93.72;57.10;;;23.00;65.50;;;;;;4930883;28;92488;-43
2023/07/08 07:59:49;;;;;;;92.50;56.40;;;23.10;65.60;;;;;;4948175;28;90077;-45
2023/07/08 08:02:15;;;;;;;92.80;56.70;;;23.10;66.50;;;;;;4936417;28;90544;-45
2023/07/08 08:04:41;;;;;;;92.13;56.75;;;23.20;66.00;;;;;;4917468;28;91064;-44
2023/07/08 08:07:06;;;;;;;92.82;57.10;;;23.20;65.00;;;;;;4920505;28;93229;-45
2023/07/08 08:09:32;;;;;;;92.93;57.30;;;23.30;65.30;;;;;;4919468;28;92336;-44
2023/07/08 08:11:58;;;;;;;93.22;57.25;;;23.30;65.00;;;;;;4925658;28;90068;-45
2023/07/08 08:14:23;;;;;;;94.28;57.30;;;23.30;64.80;;;;;;4914252;28;91447;-44
2023/07/08 08:16:49;;;;;;;94.70;57.35;;;23.40;64.30;;;;;;4931919;28;90412;-44
2023/07/08 08:19:15;;;;;;;93.75;57.53;;;23.40;64.50;;;;;;4931884;28;89567;-44
2023/07/08 08:21:41;;;;;;;94.10;57.35;;;23.50;64.60;;;;;;4925327;28;91210;-44
2023/07/08 08:24:06;;;;;;;92.55;57.17;;;23.50;64.80;;;;;;4929871;28;90345;-44
2023/07/08 08:26:32;;;;;;;94.53;57.35;;;23.60;64.80;;;;;;4914331;28;89963;-43
2023/07/08 08:28:58;;;;;;;95.68;57.55;;;23.60;64.40;;;;;;4921655;28;91629;-44
2023/07/08 08:31:23;;;;;;;95.30;57.38;;;23.60;64.50;;;;;;4916104;28;90484;-44
2023/07/08 08:33:51;;;;;;;94.55;57.70;;;23.70;64.70;;;;;;4920381;28;94079;-44
2023/07/08 08:36:17;;;;;;;95.80;58.15;;;23.70;64.30;;;;;;4919818;28;90822;-44
2023/07/08 08:38:42;;;;;;;96.43;57.47;;;23.70;64.10;;;;;;4909070;28;94078;-45
2023/07/08 08:41:17;;;;;;;97.10;57.30;;;23.80;62.60;;;;;;4917947;28;90777;-44
2023/07/08 08:43:43;;;;;;;94.30;57.35;;;23.80;62.30;;;;;;4921828;28;91586;-44
2023/07/08 08:46:28;;;;;;;94.60;57.55;;;23.90;62.00;;;;;;4909250;28;91358;-44
2023/07/08 08:49:15;;;;;;;98.72;57.53;;;23.90;62.20;;;;;;4909268;28;90917;-44
2023/07/08 08:51:41;;;;;;;97.25;57.80;;;23.90;62.20;;;;;;4904461;28;91090;-46
2023/07/08 08:54:07;;;;;;;95.13;57.38;;;24.00;61.10;;;;;;4905701;28;91194;-44
2023/07/08 08:56:54;;;;;;;95.85;57.67;;;24.10;60.80;;;;;;4906233;28;90849;-46
2023/07/08 08:59:26;;;;;;;93.20;57.30;;;24.10;60.60;;;;;;4914244;28;91764;-43
2023/07/08 09:01:54;;;;;;;95.40;57.50;;;24.10;61.10;;;;;;4900054;28;93339;-44
2023/07/08 09:04:32;;;;;;;94.70;57.65;;;24.20;60.70;;;;;;4917149;28;90359;-43
2023/07/08 09:07:07;;;;;;;93.38;57.50;;;24.20;60.50;;;;;;4908458;28;90596;-44
2023/07/08 09:09:48;;;;;;;94.60;57.28;;;24.20;61.20;;;;;;4900239;28;94166;-43
2023/07/08 09:12:18;;;;;;;;;;;24.30;60.00;;;;;;4900389;28;92842;-44
2023/07/08 09:14:44;;;;;;;94.07;57.30;;;24.30;60.50;;;;;;4879155;28;93592;-43
2023/07/08 09:17:34;;;;;;;95.32;57.30;;;24.40;59.70;;;;;;4910685;28;91979;-43
2023/07/08 09:20:22;;;;;;;93.13;57.10;;;24.40;59.80;;;;;;4902423;28;91967;-44
2023/07/08 09:23:18;;;;;;;94.80;57.47;;;24.40;59.50;;;;;;4912667;28;91613;-44
2023/07/08 09:25:59;;;;;;;95.20;57.95;;;24.50;59.30;;;;;;4900111;28;93122;-44
2023/07/08 09:28:45;;;;;;;95.72;57.15;;;24.50;59.40;;;;;;4918468;28;90994;-44
2023/07/08 09:31:32;;;;;;;94.78;57.47;;;24.60;59.80;;;;;;4920092;28;91415;-44
2023/07/08 09:34:16;;;;;;;95.15;57.42;;;24.70;59.00;;;;;;4928298;28;90559;-44
2023/07/08 09:36:46;;;;;;;94.55;57.22;;;24.70;59.90;;;;;;4922731;28;91274;-44
2023/07/08 09:39:20;;;;;;;94.40;57.67;;;24.70;61.50;;;;;;4935249;28;89195;-44
2023/07/08 09:41:48;;;;;;;96.32;57.67;;;24.80;59.20;;;;;;4933572;28;89528;-44
2023/07/08 09:44:17;;;;;;;93.85;57.40;;;24.80;58.90;;;;;;4943581;28;89896;-45
2023/07/08 09:46:43;;;;;;;97.00;57.80;;;24.80;58.70;;;;;;4934565;28;92303;-45
2023/07/08 09:49:17;;;;;;;97.10;57.65;;;24.90;59.30;;;;;;4930426;28;91544;-45
2023/07/08 09:51:44;;;;;;;97.07;57.58;;;24.90;58.70;;;;;;4938741;28;90889;-45
2023/07/08 09:54:09;;;;;;;95.97;57.80;;;25.00;59.30;;;;;;4938066;28;90373;-44
2023/07/08 09:56:39;;;;;;;96.47;58.13;;;25.10;58.30;;;;;;4937012;28;90119;-43
2023/07/08 09:59:04;;;;;;;97.35;57.85;;;25.20;58.20;;;;;;4936697;28;90038;-44
2023/07/08 10:01:30;;;;;;;95.95;58.05;;;25.20;57.90;;;;;;4939441;28;92408;-43
2023/07/08 10:04:01;;;;;;;97.97;58.10;;;25.30;57.80;;;;;;4935896;28;89051;-43
2023/07/08 10:06:30;;;;;;;100.28;58.75;;;25.30;57.70;;;;;;4942116;28;89879;-43
2023/07/08 10:09:02;;;;;;;102.13;58.20;;;25.30;55.80;;;;;;4944986;28;92506;-44
2023/07/08 10:11:36;;;;;;;98.10;58.70;;;25.30;55.00;;;;;;4931729;28;90863;-49
2023/07/08 10:14:11;;;;;;;97.85;58.58;;;25.30;54.00;;;;;;4935279;28;91264;-45
2023/07/08 10:16:37;;;;;;;96.00;58.22;;;25.40;53.20;;;;;;4941259;28;91111;-45
2023/07/08 10:19:18;;;;;;;96.82;58.70;;;25.40;52.70;;;;;;4931512;28;90802;-46
2023/07/08 10:21:43;;;;;;;95.72;58.28;;;25.40;52.20;;;;;;4942792;28;89540;-45
2023/07/08 10:24:11;;;;;;;98.18;58.58;;;25.40;51.60;;;;;;4947530;28;89868;-45
2023/07/08 10:26:38;;;;;;;98.20;58.33;;;25.40;51.20;;;;;;4943813;28;90679;-44
2023/07/08 10:29:04;;;;;;;96.72;58.53;;;25.50;50.60;;;;;;4938236;28;91475;-43
2023/07/08 10:31:49;;;;;;;94.82;57.95;;;25.50;50.40;;;;;;4941126;28;90141;-45
2023/07/08 10:34:39;;;;;;;97.90;58.22;;;25.50;50.30;;;;;;4946417;28;90658;-44
2023/07/08 10:37:32;;;;;;;97.07;58.28;;;25.60;50.00;;;;;;4941626;28;90532;-49
2023/07/08 10:40:33;;;;;;;95.60;58.28;;;25.60;49.60;;;;;;4939825;28;90916;-48
2023/07/08 10:43:17;;;;;;;94.68;58.13;;;25.60;49.30;;;;;;4934773;28;90031;-43
2023/07/08 10:46:05;;;;;;;98.07;58.58;;;25.60;49.10;;;;;;4933943;28;89656;-44
2023/07/08 10:49:08;;;;;;;97.32;58.97;;;25.70;48.80;;;;;;4938407;28;90852;-45
2023/07/08 10:51:48;;;;;;;96.25;58.42;;;25.80;48.60;;;;;;4943275;28;89525;-45
2023/07/08 10:54:25;;;;;;;97.15;58.67;;;25.80;48.50;;;;;;4936393;28;92617;-46
2023/07/08 10:57:02;;;;;;;99.20;58.63;;;25.90;48.70;;;;;;4934048;28;90169;-45
2023/07/08 10:59:34;;;;;;;97.65;58.42;;;26.00;48.70;;;;;;4935921;28;90537;-45
2023/07/08 11:02:25;;;;;;;98.63;58.67;;;26.10;48.80;;;;;;4940430;28;89996;-46
2023/07/08 11:04:53;;;;;;;102.10;58.83;;;26.10;48.90;;;;;;4919095;28;90890;-42
2023/07/08 11:07:50;;;;;;;96.38;58.80;;;26.30;49.80;;;;;;4939359;28;89392;-41
2023/07/08 11:10:29;;;;;;;98.32;58.75;;;26.30;48.50;;;;;;4922049;28;93618;-43
2023/07/08 11:13:17;;;;;;;98.25;58.95;;;26.40;48.30;;;;;;4922437;28;93884;-44
2023/07/08 11:16:00;;;;;;;96.75;58.75;;;26.50;48.50;;;;;;4923916;28;93699;-46
2023/07/08 11:18:30;;;;;;;96.55;58.90;;;26.40;48.60;;;;;;4930827;28;90189;-42
2023/07/08 11:21:02;;;;;;;97.88;58.58;;;26.40;48.70;;;;;;4928470;28;92922;-43
2023/07/08 11:23:41;;;;;;;99.35;58.70;;;26.30;48.70;;;;;;4928244;28;90630;-43
2023/07/08 11:26:31;;;;;;;98.55;59.30;;;26.30;48.90;;;;;;4925649;28;90080;-45
2023/07/08 11:28:58;;;;;;;99.65;59.20;;;26.40;49.90;;;;;;4926297;28;92232;-44
2023/07/08 11:31:27;;;;;;;97.18;58.95;;;26.40;49.00;;;;;;4928995;28;90847;-45
2023/07/08 11:33:54;;;;;;;100.80;59.40;;;26.50;48.80;;;;;;4933962;28;89726;-44
2023/07/08 11:36:22;;;;;;;101.85;59.03;;;26.50;49.10;;;;;;4930590;28;89861;-43
2023/07/08 11:38:49;;;;;;;100.57;59.35;;;26.50;48.60;;;;;;4932747;28;89819;-46
2023/07/08 11:41:18;;;;;;;101.28;59.55;;;26.60;48.80;;;;;;4930162;28;90613;-44
2023/07/08 11:43:58;;;;;;;99.82;59.05;;;26.60;48.40;;;;;;4927537;28;91477;-44
2023/07/08 11:46:28;;;;;;;100.93;59.15;;;26.60;48.30;;;;;;4914114;28;92204;-45
2023/07/08 11:48:56;;;;;;;96.60;58.80;;;26.70;49.10;;;;;;4924538;28;89657;-45
2023/07/08 11:51:28;;;;;;;105.13;60.55;;;26.80;49.80;;;;;;4922764;28;90089;-43
2023/07/08 11:54:26;;;;;;;103.70;60.92;;;26.90;48.40;;;;;;4932808;28;94341;-44
2023/07/08 11:57:05;;;;;;;102.30;59.85;;;26.90;48.20;;;;;;4930783;28;91331;-44
2023/07/08 11:59:36;;;;;;;106.38;61.63;;;27.00;49.30;;;;;;4927593;28;90148;-44
2023/07/08 12:02:10;;;;;;;103.38;60.15;;;27.10;50.90;;;;;;4927522;28;91252;-44
2023/07/08 12:05:00;;;;;;;105.15;60.08;;;27.10;48.70;;;;;;4932248;28;93818;-45
2023/07/08 12:07:44;;;;;;;107.38;60.83;;;27.10;48.50;;;;;;4932343;28;89967;-49
2023/07/08 12:10:16;;;;;;;103.45;60.25;;;27.10;48.40;;;;;;4941105;28;89580;-46
2023/07/08 12:12:44;;;;;;;102.10;60.15;;;27.00;48.30;;;;;;4936627;28;90289;-46
2023/07/08 12:15:30;;;;;;;104.90;60.40;;;27.00;48.20;;;;;;4942696;28;90077;-44
2023/07/08 12:18:02;;;;;;;100.93;60.15;;;27.00;48.60;;;;;;4937661;28;91821;-45
2023/07/08 12:20:33;;;;;;;99.35;59.42;;;27.00;47.90;;;;;;4940987;28;90714;-45
2023/07/08 12:23:00;;;;;;;101.07;60.03;;;27.00;47.90;;;;;;4942867;28;92884;-48
2023/07/08 12:25:32;;;;;;;103.18;59.85;;;27.10;49.00;;;;;;4946537;28;91042;-48
2023/07/08 12:27:58;;;;;;;101.28;59.58;;;27.00;48.20;;;;;;4942116;28;89561;-46
2023/07/08 12:30:27;;;;;;;106.20;60.33;;;27.00;48.80;;;;;;4941459;28;90443;-46
2023/07/08 12:32:52;;;;;;;101.40;60.25;;;27.00;49.00;;;;;;4940473;28;90594;-45
2023/07/08 12:35:21;;;;;;;101.22;59.72;;;27.10;47.50;;;;;;4945066;28;90752;-46
2023/07/08 12:37:47;;;;;;;100.78;60.40;;;27.10;47.40;;;;;;4947209;28;94356;-46